sensor_id;sensor_type;location;lat;lon;timestamp;P1;durP1;ratioP1;P2;durP2;ratioP2
51499;SDS011;39101;53.478;6.158;2023-08-06T00:00:08;14.98;;;11.10;;
51499;SDS011;39101;53.478;6.158;2023-08-06T00:02:34;14.23;;;11.82;;
51499;SDS011;39101;53.478;6.158;2023-08-06T00:05:00;13.60;;;11.15;;
51499;SDS011;39101;53.478;6.158;2023-08-06T00:07:26;13.70;;;11.50;;
51499;SDS011;39101;53.478;6.158;2023-08-06T00:09:52;14.57;;;11.50;;
51499;SDS011;39101;53.478;6.158;2023-08-06T00:12:17;15.63;;;12.68;;
51499;SDS011;39101;53.478;6.158;2023-08-06T00:14:43;13.43;;;11.60;;
51499;SDS011;39101;53.478;6.158;2023-08-06T00:17:09;14.60;;;11.82;;
51499;SDS011;39101;53.478;6.158;2023-08-06T00:19:35;14.73;;;11.50;;
51499;SDS011;39101;53.478;6.158;2023-08-06T00:22:00;14.05;;;11.00;;
51499;SDS011;39101;53.478;6.158;2023-08-06T00:24:27;16.08;;;11.75;;
51499;SDS011;39101;53.478;6.158;2023-08-06T00:26:52;15.27;;;12.70;;
51499;SDS011;39101;53.478;6.158;2023-08-06T00:29:18;16.02;;;10.93;;
51499;SDS011;39101;53.478;6.158;2023-08-06T00:31:44;17.08;;;12.05;;
51499;SDS011;39101;53.478;6.158;2023-08-06T00:34:10;12.10;;;10.55;;
51499;SDS011;39101;53.478;6.158;2023-08-06T00:36:35;13.55;;;11.85;;
51499;SDS011;39101;53.478;6.158;2023-08-06T00:39:01;12.48;;;9.18;;
51499;SDS011;39101;53.478;6.158;2023-08-06T00:41:27;11.00;;;8.18;;
51499;SDS011;39101;53.478;6.158;2023-08-06T00:43:53;9.20;;;7.00;;
51499;SDS011;39101;53.478;6.158;2023-08-06T00:46:19;8.65;;;6.68;;
51499;SDS011;39101;53.478;6.158;2023-08-06T00:48:44;7.43;;;5.82;;
51499;SDS011;39101;53.478;6.158;2023-08-06T00:51:10;9.10;;;6.72;;
51499;SDS011;39101;53.478;6.158;2023-08-06T00:53:39;12.50;;;7.38;;
51499;SDS011;39101;53.478;6.158;2023-08-06T00:56:06;11.00;;;6.70;;
51499;SDS011;39101;53.478;6.158;2023-08-06T00:58:32;10.20;;;7.13;;
51499;SDS011;39101;53.478;6.158;2023-08-06T01:00:59;9.80;;;6.63;;
51499;SDS011;39101;53.478;6.158;2023-08-06T01:03:25;9.57;;;7.35;;
51499;SDS011;39101;53.478;6.158;2023-08-06T01:05:50;12.63;;;7.22;;
51499;SDS011;39101;53.478;6.158;2023-08-06T01:13:34;9.88;;;7.65;;
51499;SDS011;39101;53.478;6.158;2023-08-06T01:16:05;11.68;;;8.00;;
51499;SDS011;39101;53.478;6.158;2023-08-06T01:18:32;11.55;;;8.10;;
51499;SDS011;39101;53.478;6.158;2023-08-06T01:20:58;10.23;;;6.88;;
51499;SDS011;39101;53.478;6.158;2023-08-06T01:23:24;11.27;;;6.90;;
51499;SDS011;39101;53.478;6.158;2023-08-06T01:26:14;9.65;;;7.57;;
51499;SDS011;39101;53.478;6.158;2023-08-06T01:31:32;12.40;;;7.25;;
51499;SDS011;39101;53.478;6.158;2023-08-06T01:34:01;8.50;;;6.97;;
51499;SDS011;39101;53.478;6.158;2023-08-06T01:36:29;12.40;;;8.02;;
51499;SDS011;39101;53.478;6.158;2023-08-06T01:38:56;10.57;;;7.82;;
51499;SDS011;39101;53.478;6.158;2023-08-06T01:41:22;9.77;;;7.95;;
51499;SDS011;39101;53.478;6.158;2023-08-06T01:43:48;12.80;;;8.10;;
51499;SDS011;39101;53.478;6.158;2023-08-06T01:46:13;8.23;;;6.55;;
51499;SDS011;39101;53.478;6.158;2023-08-06T01:48:39;9.40;;;6.25;;
51499;SDS011;39101;53.478;6.158;2023-08-06T01:51:05;8.68;;;6.25;;
51499;SDS011;39101;53.478;6.158;2023-08-06T01:53:31;10.98;;;7.10;;
51499;SDS011;39101;53.478;6.158;2023-08-06T01:55:58;8.50;;;6.25;;
51499;SDS011;39101;53.478;6.158;2023-08-06T01:58:23;8.55;;;6.78;;
51499;SDS011;39101;53.478;6.158;2023-08-06T02:00:49;9.93;;;6.72;;
51499;SDS011;39101;53.478;6.158;2023-08-06T02:03:15;10.65;;;6.25;;
51499;SDS011;39101;53.478;6.158;2023-08-06T02:05:41;12.02;;;7.10;;
51499;SDS011;39101;53.478;6.158;2023-08-06T02:08:06;9.52;;;5.75;;
51499;SDS011;39101;53.478;6.158;2023-08-06T02:10:32;9.23;;;6.07;;
51499;SDS011;39101;53.478;6.158;2023-08-06T02:12:58;10.02;;;6.60;;
51499;SDS011;39101;53.478;6.158;2023-08-06T02:15:23;8.77;;;6.72;;
51499;SDS011;39101;53.478;6.158;2023-08-06T02:17:49;11.18;;;6.38;;
51499;SDS011;39101;53.478;6.158;2023-08-06T02:20:15;9.85;;;7.22;;
51499;SDS011;39101;53.478;6.158;2023-08-06T02:22:40;8.75;;;7.10;;
51499;SDS011;39101;53.478;6.158;2023-08-06T02:25:06;8.20;;;7.30;;
51499;SDS011;39101;53.478;6.158;2023-08-06T02:27:32;12.95;;;8.13;;
51499;SDS011;39101;53.478;6.158;2023-08-06T02:29:58;13.38;;;8.43;;
51499;SDS011;39101;53.478;6.158;2023-08-06T02:32:23;11.82;;;7.93;;
51499;SDS011;39101;53.478;6.158;2023-08-06T02:34:49;10.23;;;7.63;;
51499;SDS011;39101;53.478;6.158;2023-08-06T02:37:15;11.48;;;8.10;;
51499;SDS011;39101;53.478;6.158;2023-08-06T02:39:40;11.60;;;7.53;;
51499;SDS011;39101;53.478;6.158;2023-08-06T02:42:06;11.02;;;7.40;;
51499;SDS011;39101;53.478;6.158;2023-08-06T02:44:32;10.00;;;8.68;;
51499;SDS011;39101;53.478;6.158;2023-08-06T02:46:58;12.65;;;8.95;;
51499;SDS011;39101;53.478;6.158;2023-08-06T02:49:25;10.80;;;8.10;;
51499;SDS011;39101;53.478;6.158;2023-08-06T02:51:50;13.80;;;9.05;;
51499;SDS011;39101;53.478;6.158;2023-08-06T02:54:17;16.63;;;9.43;;
51499;SDS011;39101;53.478;6.158;2023-08-06T02:56:43;14.95;;;9.48;;
51499;SDS011;39101;53.478;6.158;2023-08-06T02:59:10;13.40;;;9.43;;
51499;SDS011;39101;53.478;6.158;2023-08-06T03:01:36;12.55;;;9.80;;
51499;SDS011;39101;53.478;6.158;2023-08-06T03:04:02;14.45;;;9.57;;
51499;SDS011;39101;53.478;6.158;2023-08-06T03:06:28;13.40;;;10.57;;
51499;SDS011;39101;53.478;6.158;2023-08-06T03:08:53;13.73;;;10.15;;
51499;SDS011;39101;53.478;6.158;2023-08-06T03:11:19;14.43;;;10.70;;
51499;SDS011;39101;53.478;6.158;2023-08-06T03:13:45;13.85;;;9.73;;
51499;SDS011;39101;53.478;6.158;2023-08-06T03:16:11;14.13;;;10.80;;
51499;SDS011;39101;53.478;6.158;2023-08-06T03:18:37;14.70;;;10.13;;
51499;SDS011;39101;53.478;6.158;2023-08-06T03:21:03;12.93;;;10.15;;
51499;SDS011;39101;53.478;6.158;2023-08-06T03:23:28;13.15;;;10.02;;
51499;SDS011;39101;53.478;6.158;2023-08-06T03:25:54;13.30;;;10.30;;
51499;SDS011;39101;53.478;6.158;2023-08-06T03:28:20;16.45;;;11.82;;
51499;SDS011;39101;53.478;6.158;2023-08-06T03:30:45;13.38;;;11.63;;
51499;SDS011;39101;53.478;6.158;2023-08-06T03:33:11;13.90;;;11.32;;
51499;SDS011;39101;53.478;6.158;2023-08-06T03:35:37;12.05;;;10.65;;
51499;SDS011;39101;53.478;6.158;2023-08-06T03:38:02;17.33;;;12.35;;
51499;SDS011;39101;53.478;6.158;2023-08-06T03:40:34;15.60;;;11.73;;
51499;SDS011;39101;53.478;6.158;2023-08-06T03:43:00;14.55;;;11.40;;
51499;SDS011;39101;53.478;6.158;2023-08-06T03:45:25;15.77;;;11.57;;
51499;SDS011;39101;53.478;6.158;2023-08-06T03:47:51;14.73;;;12.32;;
51499;SDS011;39101;53.478;6.158;2023-08-06T03:50:17;18.38;;;12.77;;
51499;SDS011;39101;53.478;6.158;2023-08-06T03:52:42;15.68;;;12.43;;
51499;SDS011;39101;53.478;6.158;2023-08-06T03:55:08;16.88;;;13.07;;
51499;SDS011;39101;53.478;6.158;2023-08-06T03:57:33;15.23;;;12.05;;
51499;SDS011;39101;53.478;6.158;2023-08-06T03:59:59;16.55;;;12.48;;
51499;SDS011;39101;53.478;6.158;2023-08-06T04:02:25;16.63;;;12.48;;
51499;SDS011;39101;53.478;6.158;2023-08-06T04:04:51;15.63;;;12.65;;
51499;SDS011;39101;53.478;6.158;2023-08-06T04:07:18;16.75;;;13.30;;
51499;SDS011;39101;53.478;6.158;2023-08-06T04:09:52;16.33;;;11.82;;
51499;SDS011;39101;53.478;6.158;2023-08-06T04:12:23;14.65;;;12.57;;
51499;SDS011;39101;53.478;6.158;2023-08-06T04:14:49;17.55;;;13.63;;
51499;SDS011;39101;53.478;6.158;2023-08-06T04:17:17;16.77;;;13.50;;
51499;SDS011;39101;53.478;6.158;2023-08-06T04:19:46;15.65;;;12.57;;
51499;SDS011;39101;53.478;6.158;2023-08-06T04:22:15;16.77;;;13.18;;
51499;SDS011;39101;53.478;6.158;2023-08-06T04:24:41;18.40;;;12.63;;
51499;SDS011;39101;53.478;6.158;2023-08-06T04:27:08;17.02;;;12.70;;
51499;SDS011;39101;53.478;6.158;2023-08-06T04:29:35;14.98;;;11.35;;
51499;SDS011;39101;53.478;6.158;2023-08-06T04:32:01;13.88;;;12.13;;
51499;SDS011;39101;53.478;6.158;2023-08-06T04:34:28;20.98;;;12.70;;
51499;SDS011;39101;53.478;6.158;2023-08-06T04:36:54;15.27;;;12.02;;
51499;SDS011;39101;53.478;6.158;2023-08-06T04:39:20;14.25;;;11.30;;
51499;SDS011;39101;53.478;6.158;2023-08-06T04:41:45;15.32;;;12.10;;
51499;SDS011;39101;53.478;6.158;2023-08-06T04:44:11;15.48;;;11.45;;
51499;SDS011;39101;53.478;6.158;2023-08-06T04:46:36;13.52;;;10.40;;
51499;SDS011;39101;53.478;6.158;2023-08-06T04:49:02;12.68;;;10.27;;
51499;SDS011;39101;53.478;6.158;2023-08-06T04:51:28;13.57;;;11.27;;
51499;SDS011;39101;53.478;6.158;2023-08-06T04:53:53;13.20;;;10.98;;
51499;SDS011;39101;53.478;6.158;2023-08-06T04:56:19;14.60;;;11.10;;
51499;SDS011;39101;53.478;6.158;2023-08-06T04:58:44;15.45;;;11.60;;
51499;SDS011;39101;53.478;6.158;2023-08-06T05:01:10;15.55;;;11.02;;
51499;SDS011;39101;53.478;6.158;2023-08-06T05:03:36;14.95;;;11.55;;
51499;SDS011;39101;53.478;6.158;2023-08-06T05:06:01;15.18;;;11.38;;
51499;SDS011;39101;53.478;6.158;2023-08-06T05:08:27;15.02;;;11.32;;
51499;SDS011;39101;53.478;6.158;2023-08-06T05:10:53;17.23;;;11.18;;
51499;SDS011;39101;53.478;6.158;2023-08-06T05:13:18;12.98;;;10.95;;
51499;SDS011;39101;53.478;6.158;2023-08-06T05:15:44;17.27;;;11.10;;
51499;SDS011;39101;53.478;6.158;2023-08-06T05:18:11;15.32;;;11.80;;
51499;SDS011;39101;53.478;6.158;2023-08-06T05:20:40;16.55;;;11.02;;
51499;SDS011;39101;53.478;6.158;2023-08-06T05:23:07;16.27;;;11.20;;
51499;SDS011;39101;53.478;6.158;2023-08-06T05:25:36;16.50;;;12.15;;
51499;SDS011;39101;53.478;6.158;2023-08-06T05:28:02;15.40;;;10.70;;
51499;SDS011;39101;53.478;6.158;2023-08-06T05:30:28;13.55;;;10.63;;
51499;SDS011;39101;53.478;6.158;2023-08-06T05:32:54;14.52;;;9.68;;
51499;SDS011;39101;53.478;6.158;2023-08-06T05:35:20;11.57;;;9.93;;
51499;SDS011;39101;53.478;6.158;2023-08-06T05:37:47;13.32;;;9.98;;
51499;SDS011;39101;53.478;6.158;2023-08-06T05:40:13;10.57;;;9.45;;
51499;SDS011;39101;53.478;6.158;2023-08-06T05:42:39;13.40;;;9.18;;
51499;SDS011;39101;53.478;6.158;2023-08-06T05:45:05;12.95;;;9.90;;
51499;SDS011;39101;53.478;6.158;2023-08-06T05:47:31;14.95;;;10.30;;
51499;SDS011;39101;53.478;6.158;2023-08-06T05:49:57;12.57;;;9.30;;
51499;SDS011;39101;53.478;6.158;2023-08-06T05:52:23;12.95;;;9.27;;
51499;SDS011;39101;53.478;6.158;2023-08-06T05:54:48;12.18;;;9.60;;
51499;SDS011;39101;53.478;6.158;2023-08-06T05:57:15;12.05;;;9.70;;
51499;SDS011;39101;53.478;6.158;2023-08-06T05:59:41;12.80;;;10.05;;
51499;SDS011;39101;53.478;6.158;2023-08-06T06:02:06;12.77;;;9.18;;
51499;SDS011;39101;53.478;6.158;2023-08-06T06:04:32;13.38;;;9.60;;
51499;SDS011;39101;53.478;6.158;2023-08-06T06:06:58;11.90;;;9.05;;
51499;SDS011;39101;53.478;6.158;2023-08-06T06:09:23;11.35;;;8.13;;
51499;SDS011;39101;53.478;6.158;2023-08-06T06:11:49;9.13;;;7.80;;
51499;SDS011;39101;53.478;6.158;2023-08-06T06:14:16;13.13;;;9.05;;
51499;SDS011;39101;53.478;6.158;2023-08-06T06:16:42;11.70;;;7.93;;
51499;SDS011;39101;53.478;6.158;2023-08-06T06:19:08;13.45;;;8.15;;
51499;SDS011;39101;53.478;6.158;2023-08-06T06:21:34;10.95;;;8.25;;
51499;SDS011;39101;53.478;6.158;2023-08-06T06:23:59;10.85;;;8.60;;
51499;SDS011;39101;53.478;6.158;2023-08-06T06:26:25;12.30;;;8.48;;
51499;SDS011;39101;53.478;6.158;2023-08-06T06:28:51;10.80;;;7.88;;
51499;SDS011;39101;53.478;6.158;2023-08-06T06:31:16;10.77;;;8.20;;
51499;SDS011;39101;53.478;6.158;2023-08-06T06:33:42;13.75;;;7.75;;
51499;SDS011;39101;53.478;6.158;2023-08-06T06:36:08;11.45;;;8.38;;
51499;SDS011;39101;53.478;6.158;2023-08-06T06:38:36;12.40;;;8.00;;
51499;SDS011;39101;53.478;6.158;2023-08-06T06:41:02;9.73;;;7.55;;
51499;SDS011;39101;53.478;6.158;2023-08-06T06:43:28;8.50;;;7.10;;
51499;SDS011;39101;53.478;6.158;2023-08-06T06:45:57;10.77;;;6.80;;
51499;SDS011;39101;53.478;6.158;2023-08-06T06:48:25;9.80;;;6.70;;
51499;SDS011;39101;53.478;6.158;2023-08-06T06:50:51;11.25;;;7.07;;
51499;SDS011;39101;53.478;6.158;2023-08-06T06:53:18;10.18;;;6.57;;
51499;SDS011;39101;53.478;6.158;2023-08-06T06:55:43;8.80;;;6.40;;
51499;SDS011;39101;53.478;6.158;2023-08-06T06:58:09;7.22;;;6.03;;
51499;SDS011;39101;53.478;6.158;2023-08-06T07:00:35;9.70;;;6.90;;
51499;SDS011;39101;53.478;6.158;2023-08-06T07:03:02;7.80;;;6.13;;
51499;SDS011;39101;53.478;6.158;2023-08-06T07:05:28;8.90;;;5.80;;
51499;SDS011;39101;53.478;6.158;2023-08-06T07:07:54;6.75;;;5.82;;
51499;SDS011;39101;53.478;6.158;2023-08-06T07:10:19;8.60;;;6.22;;
51499;SDS011;39101;53.478;6.158;2023-08-06T07:12:45;9.18;;;5.97;;
51499;SDS011;39101;53.478;6.158;2023-08-06T07:15:11;7.00;;;5.10;;
51499;SDS011;39101;53.478;6.158;2023-08-06T07:17:36;7.45;;;5.38;;
51499;SDS011;39101;53.478;6.158;2023-08-06T07:20:02;7.13;;;5.70;;
51499;SDS011;39101;53.478;6.158;2023-08-06T07:22:29;7.22;;;5.80;;
51499;SDS011;39101;53.478;6.158;2023-08-06T07:24:55;7.05;;;5.03;;
51499;SDS011;39101;53.478;6.158;2023-08-06T07:27:20;7.18;;;5.22;;
51499;SDS011;39101;53.478;6.158;2023-08-06T07:29:46;7.65;;;5.20;;
51499;SDS011;39101;53.478;6.158;2023-08-06T07:32:13;8.85;;;4.85;;
51499;SDS011;39101;53.478;6.158;2023-08-06T07:34:40;8.18;;;5.03;;
51499;SDS011;39101;53.478;6.158;2023-08-06T07:37:05;5.95;;;4.97;;
51499;SDS011;39101;53.478;6.158;2023-08-06T07:39:31;6.18;;;4.55;;
51499;SDS011;39101;53.478;6.158;2023-08-06T07:41:57;7.07;;;4.63;;
51499;SDS011;39101;53.478;6.158;2023-08-06T07:44:22;5.25;;;3.75;;
51499;SDS011;39101;53.478;6.158;2023-08-06T07:46:49;6.32;;;3.90;;
51499;SDS011;39101;53.478;6.158;2023-08-06T07:49:15;6.93;;;3.63;;
51499;SDS011;39101;53.478;6.158;2023-08-06T07:51:40;7.35;;;3.58;;
51499;SDS011;39101;53.478;6.158;2023-08-06T07:54:06;6.45;;;3.28;;
51499;SDS011;39101;53.478;6.158;2023-08-06T07:56:32;7.25;;;3.03;;
51499;SDS011;39101;53.478;6.158;2023-08-06T07:58:58;5.22;;;2.95;;
51499;SDS011;39101;53.478;6.158;2023-08-06T08:01:24;7.13;;;2.78;;
51499;SDS011;39101;53.478;6.158;2023-08-06T08:03:49;6.97;;;2.92;;
51499;SDS011;39101;53.478;6.158;2023-08-06T08:06:15;4.43;;;2.97;;
51499;SDS011;39101;53.478;6.158;2023-08-06T08:08:40;3.92;;;2.80;;
51499;SDS011;39101;53.478;6.158;2023-08-06T08:11:06;4.05;;;2.83;;
51499;SDS011;39101;53.478;6.158;2023-08-06T08:13:32;6.40;;;2.95;;
51499;SDS011;39101;53.478;6.158;2023-08-06T08:15:59;11.20;;;3.17;;
51499;SDS011;39101;53.478;6.158;2023-08-06T08:18:25;10.90;;;3.28;;
51499;SDS011;39101;53.478;6.158;2023-08-06T08:20:50;7.25;;;3.30;;
51499;SDS011;39101;53.478;6.158;2023-08-06T08:23:16;7.20;;;3.40;;
51499;SDS011;39101;53.478;6.158;2023-08-06T08:25:42;6.00;;;3.10;;
51499;SDS011;39101;53.478;6.158;2023-08-06T08:28:07;9.88;;;3.95;;
51499;SDS011;39101;53.478;6.158;2023-08-06T08:30:33;4.38;;;2.83;;
51499;SDS011;39101;53.478;6.158;2023-08-06T08:32:59;6.07;;;2.97;;
51499;SDS011;39101;53.478;6.158;2023-08-06T08:35:25;8.07;;;4.47;;
51499;SDS011;39101;53.478;6.158;2023-08-06T08:37:50;6.60;;;3.17;;
51499;SDS011;39101;53.478;6.158;2023-08-06T08:40:16;5.97;;;3.22;;
51499;SDS011;39101;53.478;6.158;2023-08-06T08:42:42;9.73;;;3.72;;
51499;SDS011;39101;53.478;6.158;2023-08-06T08:45:12;9.13;;;3.85;;
51499;SDS011;39101;53.478;6.158;2023-08-06T08:47:40;6.68;;;3.55;;
51499;SDS011;39101;53.478;6.158;2023-08-06T08:50:08;7.90;;;3.63;;
51499;SDS011;39101;53.478;6.158;2023-08-06T08:52:36;8.93;;;4.63;;
51499;SDS011;39101;53.478;6.158;2023-08-06T08:55:03;6.88;;;4.10;;
51499;SDS011;39101;53.478;6.158;2023-08-06T08:57:30;7.93;;;3.65;;
51499;SDS011;39101;53.478;6.158;2023-08-06T08:59:56;5.53;;;2.85;;
51499;SDS011;39101;53.478;6.158;2023-08-06T09:02:21;5.90;;;3.35;;
51499;SDS011;39101;53.478;6.158;2023-08-06T09:04:53;7.43;;;2.83;;
51499;SDS011;39101;53.478;6.158;2023-08-06T09:07:19;6.50;;;3.80;;
51499;SDS011;39101;53.478;6.158;2023-08-06T09:09:48;5.40;;;3.30;;
51499;SDS011;39101;53.478;6.158;2023-08-06T09:12:15;6.10;;;3.80;;
51499;SDS011;39101;53.478;6.158;2023-08-06T09:14:42;8.07;;;3.58;;
51499;SDS011;39101;53.478;6.158;2023-08-06T09:17:08;5.85;;;3.13;;
51499;SDS011;39101;53.478;6.158;2023-08-06T09:19:36;5.40;;;4.05;;
51499;SDS011;39101;53.478;6.158;2023-08-06T09:22:01;6.85;;;3.90;;
51499;SDS011;39101;53.478;6.158;2023-08-06T09:24:27;4.05;;;3.00;;
51499;SDS011;39101;53.478;6.158;2023-08-06T09:26:53;6.05;;;3.55;;
51499;SDS011;39101;53.478;6.158;2023-08-06T09:29:19;6.40;;;3.83;;
51499;SDS011;39101;53.478;6.158;2023-08-06T09:31:48;5.80;;;3.60;;
51499;SDS011;39101;53.478;6.158;2023-08-06T09:34:19;6.32;;;3.67;;
51499;SDS011;39101;53.478;6.158;2023-08-06T09:36:52;7.85;;;3.88;;
51499;SDS011;39101;53.478;6.158;2023-08-06T09:39:28;6.40;;;3.60;;
51499;SDS011;39101;53.478;6.158;2023-08-06T09:41:55;5.30;;;3.83;;
51499;SDS011;39101;53.478;6.158;2023-08-06T09:44:22;4.45;;;3.25;;
51499;SDS011;39101;53.478;6.158;2023-08-06T09:46:51;6.43;;;3.08;;
51499;SDS011;39101;53.478;6.158;2023-08-06T09:49:20;4.38;;;2.80;;
51499;SDS011;39101;53.478;6.158;2023-08-06T09:51:47;5.60;;;3.20;;
51499;SDS011;39101;53.478;6.158;2023-08-06T09:54:16;6.07;;;3.67;;
51499;SDS011;39101;53.478;6.158;2023-08-06T09:56:42;7.05;;;3.30;;
51499;SDS011;39101;53.478;6.158;2023-08-06T09:59:08;5.15;;;3.10;;
51499;SDS011;39101;53.478;6.158;2023-08-06T10:01:36;5.28;;;3.67;;
51499;SDS011;39101;53.478;6.158;2023-08-06T10:04:02;4.00;;;3.28;;
51499;SDS011;39101;53.478;6.158;2023-08-06T10:06:29;6.45;;;3.33;;
51499;SDS011;39101;53.478;6.158;2023-08-06T10:08:57;5.57;;;3.97;;
51499;SDS011;39101;53.478;6.158;2023-08-06T10:11:24;7.78;;;3.65;;
51499;SDS011;39101;53.478;6.158;2023-08-06T10:13:52;5.25;;;3.30;;
51499;SDS011;39101;53.478;6.158;2023-08-06T10:16:29;4.93;;;3.20;;
51499;SDS011;39101;53.478;6.158;2023-08-06T10:18:55;4.82;;;2.95;;
51499;SDS011;39101;53.478;6.158;2023-08-06T10:21:23;5.47;;;3.35;;
51499;SDS011;39101;53.478;6.158;2023-08-06T10:23:58;6.65;;;3.38;;
51499;SDS011;39101;53.478;6.158;2023-08-06T10:26:27;6.20;;;3.45;;
51499;SDS011;39101;53.478;6.158;2023-08-06T10:28:54;5.72;;;2.75;;
51499;SDS011;39101;53.478;6.158;2023-08-06T10:31:20;5.05;;;2.90;;
51499;SDS011;39101;53.478;6.158;2023-08-06T10:34:24;6.22;;;2.78;;
51499;SDS011;39101;53.478;6.158;2023-08-06T10:36:49;5.35;;;2.72;;
51499;SDS011;39101;53.478;6.158;2023-08-06T10:39:15;5.18;;;3.10;;
51499;SDS011;39101;53.478;6.158;2023-08-06T10:41:43;4.07;;;2.47;;
51499;SDS011;39101;53.478;6.158;2023-08-06T10:44:09;4.45;;;2.67;;
51499;SDS011;39101;53.478;6.158;2023-08-06T10:46:37;4.88;;;2.75;;
51499;SDS011;39101;53.478;6.158;2023-08-06T10:49:03;4.70;;;2.70;;
51499;SDS011;39101;53.478;6.158;2023-08-06T10:51:29;4.95;;;2.72;;
51499;SDS011;39101;53.478;6.158;2023-08-06T10:53:55;5.65;;;2.88;;
51499;SDS011;39101;53.478;6.158;2023-08-06T10:56:23;5.72;;;2.80;;
51499;SDS011;39101;53.478;6.158;2023-08-06T10:58:56;5.43;;;2.60;;
51499;SDS011;39101;53.478;6.158;2023-08-06T11:01:23;4.60;;;2.70;;
51499;SDS011;39101;53.478;6.158;2023-08-06T11:03:49;4.13;;;2.80;;
51499;SDS011;39101;53.478;6.158;2023-08-06T11:06:22;6.30;;;2.72;;
51499;SDS011;39101;53.478;6.158;2023-08-06T11:08:52;4.03;;;2.75;;
51499;SDS011;39101;53.478;6.158;2023-08-06T11:11:18;5.22;;;2.97;;
51499;SDS011;39101;53.478;6.158;2023-08-06T11:13:45;6.53;;;2.83;;
51499;SDS011;39101;53.478;6.158;2023-08-06T11:16:12;4.35;;;2.65;;
51499;SDS011;39101;53.478;6.158;2023-08-06T11:18:43;4.35;;;2.80;;
51499;SDS011;39101;53.478;6.158;2023-08-06T11:21:09;4.47;;;2.67;;
51499;SDS011;39101;53.478;6.158;2023-08-06T11:23:36;8.40;;;2.85;;
51499;SDS011;39101;53.478;6.158;2023-08-06T11:26:02;4.55;;;2.70;;
51499;SDS011;39101;53.478;6.158;2023-08-06T11:28:28;4.18;;;2.47;;
51499;SDS011;39101;53.478;6.158;2023-08-06T11:30:54;4.32;;;2.45;;
51499;SDS011;39101;53.478;6.158;2023-08-06T11:33:22;5.43;;;2.60;;
51499;SDS011;39101;53.478;6.158;2023-08-06T11:35:51;6.78;;;2.72;;
51499;SDS011;39101;53.478;6.158;2023-08-06T11:38:17;4.10;;;2.67;;
51499;SDS011;39101;53.478;6.158;2023-08-06T11:40:50;3.45;;;2.30;;
51499;SDS011;39101;53.478;6.158;2023-08-06T11:43:17;3.60;;;2.28;;
51499;SDS011;39101;53.478;6.158;2023-08-06T11:45:45;3.53;;;2.40;;
51499;SDS011;39101;53.478;6.158;2023-08-06T11:48:11;3.33;;;2.15;;
51499;SDS011;39101;53.478;6.158;2023-08-06T11:50:37;3.42;;;2.30;;
51499;SDS011;39101;53.478;6.158;2023-08-06T11:53:06;4.03;;;2.37;;
51499;SDS011;39101;53.478;6.158;2023-08-06T11:55:32;3.83;;;2.30;;
51499;SDS011;39101;53.478;6.158;2023-08-06T11:57:59;4.60;;;2.75;;
51499;SDS011;39101;53.478;6.158;2023-08-06T12:00:29;4.45;;;2.70;;
51499;SDS011;39101;53.478;6.158;2023-08-06T12:02:55;3.78;;;2.50;;
51499;SDS011;39101;53.478;6.158;2023-08-06T12:05:31;4.07;;;2.35;;
51499;SDS011;39101;53.478;6.158;2023-08-06T12:08:01;3.95;;;2.33;;
51499;SDS011;39101;53.478;6.158;2023-08-06T12:10:28;3.60;;;2.40;;
51499;SDS011;39101;53.478;6.158;2023-08-06T12:12:55;3.38;;;2.10;;
51499;SDS011;39101;53.478;6.158;2023-08-06T12:15:21;3.45;;;2.15;;
51499;SDS011;39101;53.478;6.158;2023-08-06T12:17:48;3.55;;;2.15;;
51499;SDS011;39101;53.478;6.158;2023-08-06T12:20:13;4.90;;;2.20;;
51499;SDS011;39101;53.478;6.158;2023-08-06T12:22:40;4.60;;;2.03;;
51499;SDS011;39101;53.478;6.158;2023-08-06T12:25:06;4.65;;;2.10;;
51499;SDS011;39101;53.478;6.158;2023-08-06T12:27:36;3.78;;;2.05;;
51499;SDS011;39101;53.478;6.158;2023-08-06T12:30:03;4.28;;;2.70;;
51499;SDS011;39101;53.478;6.158;2023-08-06T12:32:29;3.35;;;1.85;;
51499;SDS011;39101;53.478;6.158;2023-08-06T12:34:55;3.13;;;2.13;;
51499;SDS011;39101;53.478;6.158;2023-08-06T12:37:21;3.40;;;1.90;;
51499;SDS011;39101;53.478;6.158;2023-08-06T12:39:48;2.97;;;2.40;;
51499;SDS011;39101;53.478;6.158;2023-08-06T12:42:13;3.25;;;1.95;;
51499;SDS011;39101;53.478;6.158;2023-08-06T12:44:39;3.42;;;2.33;;
51499;SDS011;39101;53.478;6.158;2023-08-06T12:47:05;3.75;;;1.92;;
51499;SDS011;39101;53.478;6.158;2023-08-06T12:49:31;4.82;;;2.28;;
51499;SDS011;39101;53.478;6.158;2023-08-06T12:51:58;2.65;;;1.75;;
51499;SDS011;39101;53.478;6.158;2023-08-06T12:54:25;6.55;;;2.75;;
51499;SDS011;39101;53.478;6.158;2023-08-06T12:56:50;3.97;;;1.73;;
51499;SDS011;39101;53.478;6.158;2023-08-06T12:59:17;3.88;;;1.80;;
51499;SDS011;39101;53.478;6.158;2023-08-06T13:01:43;4.03;;;2.08;;
51499;SDS011;39101;53.478;6.158;2023-08-06T13:04:09;2.90;;;1.85;;
51499;SDS011;39101;53.478;6.158;2023-08-06T13:06:35;2.78;;;1.85;;
51499;SDS011;39101;53.478;6.158;2023-08-06T13:09:02;4.18;;;2.10;;
51499;SDS011;39101;53.478;6.158;2023-08-06T13:11:29;3.75;;;1.88;;
51499;SDS011;39101;53.478;6.158;2023-08-06T13:13:56;4.43;;;2.00;;
51499;SDS011;39101;53.478;6.158;2023-08-06T13:16:30;4.00;;;1.88;;
51499;SDS011;39101;53.478;6.158;2023-08-06T13:18:55;2.10;;;1.80;;
51499;SDS011;39101;53.478;6.158;2023-08-06T13:21:21;3.35;;;2.00;;
51499;SDS011;39101;53.478;6.158;2023-08-06T13:23:46;4.40;;;2.38;;
51499;SDS011;39101;53.478;6.158;2023-08-06T13:26:13;3.60;;;2.00;;
51499;SDS011;39101;53.478;6.158;2023-08-06T13:28:38;3.95;;;2.13;;
51499;SDS011;39101;53.478;6.158;2023-08-06T13:31:04;3.00;;;1.77;;
51499;SDS011;39101;53.478;6.158;2023-08-06T13:33:30;2.88;;;1.92;;
51499;SDS011;39101;53.478;6.158;2023-08-06T13:35:55;3.08;;;2.00;;
51499;SDS011;39101;53.478;6.158;2023-08-06T13:38:21;4.32;;;2.00;;
51499;SDS011;39101;53.478;6.158;2023-08-06T13:40:47;4.10;;;2.30;;
51499;SDS011;39101;53.478;6.158;2023-08-06T13:43:13;3.13;;;2.10;;
51499;SDS011;39101;53.478;6.158;2023-08-06T13:45:40;4.00;;;2.47;;
51499;SDS011;39101;53.478;6.158;2023-08-06T13:48:06;3.30;;;1.88;;
51499;SDS011;39101;53.478;6.158;2023-08-06T13:50:32;3.35;;;2.10;;
51499;SDS011;39101;53.478;6.158;2023-08-06T13:52:58;2.85;;;1.92;;
51499;SDS011;39101;53.478;6.158;2023-08-06T13:55:23;3.03;;;2.08;;
51499;SDS011;39101;53.478;6.158;2023-08-06T13:57:49;3.63;;;2.35;;
51499;SDS011;39101;53.478;6.158;2023-08-06T14:00:16;3.17;;;1.95;;
51499;SDS011;39101;53.478;6.158;2023-08-06T14:02:41;3.38;;;1.95;;
51499;SDS011;39101;53.478;6.158;2023-08-06T14:05:09;3.78;;;1.80;;
51499;SDS011;39101;53.478;6.158;2023-08-06T14:07:35;3.28;;;1.90;;
51499;SDS011;39101;53.478;6.158;2023-08-06T14:10:00;3.90;;;2.40;;
51499;SDS011;39101;53.478;6.158;2023-08-06T14:12:26;4.95;;;2.20;;
51499;SDS011;39101;53.478;6.158;2023-08-06T14:14:51;3.88;;;2.03;;
51499;SDS011;39101;53.478;6.158;2023-08-06T14:17:17;3.33;;;2.00;;
51499;SDS011;39101;53.478;6.158;2023-08-06T14:19:43;3.78;;;2.13;;
51499;SDS011;39101;53.478;6.158;2023-08-06T14:22:08;4.00;;;2.00;;
51499;SDS011;39101;53.478;6.158;2023-08-06T14:24:34;4.90;;;2.03;;
51499;SDS011;39101;53.478;6.158;2023-08-06T14:27:00;4.95;;;2.63;;
51499;SDS011;39101;53.478;6.158;2023-08-06T14:29:25;3.33;;;2.17;;
51499;SDS011;39101;53.478;6.158;2023-08-06T14:31:51;2.50;;;1.77;;
51499;SDS011;39101;53.478;6.158;2023-08-06T14:34:17;3.13;;;2.20;;
51499;SDS011;39101;53.478;6.158;2023-08-06T14:36:42;3.67;;;2.22;;
51499;SDS011;39101;53.478;6.158;2023-08-06T14:39:08;4.25;;;2.05;;
51499;SDS011;39101;53.478;6.158;2023-08-06T14:41:33;4.03;;;2.30;;
51499;SDS011;39101;53.478;6.158;2023-08-06T14:43:59;3.25;;;2.00;;